Time;durP1;ratioP1;P1;durP2;ratioP2;P2;SDS_P1;SDS_P2;PMS_P1;PMS_P2;Temp;Humidity;BMP_temperature;BMP_pressure;BME280_temperature;BME280_humidity;BME280_pressure;Samples;Min_cycle;Max_cycle;Signal;HPM_P1;HPM_P2
2022/10/17 00:02:13;;;;;;;3.00;2.70;;;27.50;60.10;;;;;;4989477;28;20320;-96
2022/10/17 00:04:44;;;;;;;4.00;2.50;;;27.40;61.90;;;;;;5002317;28;20194;-96
2022/10/17 00:07:16;;;;;;;7.07;2.60;;;27.30;63.40;;;;;;5015758;28;20237;-96
2022/10/17 00:09:52;;;;;;;3.80;2.50;;;27.10;61.80;;;;;;4998460;28;20269;-95
2022/10/17 00:12:23;;;;;;;3.23;2.73;;;27.10;64.70;;;;;;5007751;28;20205;-95
2022/10/17 00:14:55;;;;;;;3.30;2.73;;;26.90;64.30;;;;;;5015784;28;20213;-96
2022/10/17 00:17:26;;;;;;;3.80;2.43;;;26.80;64.50;;;;;;5016512;28;20256;-95
2022/10/17 00:20:00;;;;;;;4.23;2.43;;;26.70;65.20;;;;;;5009062;28;20207;-96
2022/10/17 00:22:32;;;;;;;2.77;2.50;;;26.60;66.10;;;;;;4995174;28;20225;-96
2022/10/17 00:25:06;;;;;;;4.23;2.63;;;26.40;67.10;;;;;;4995412;28;20241;-96
2022/10/17 00:27:38;;;;;;;2.80;2.60;;;26.30;67.60;;;;;;4979959;28;20210;-95
2022/10/17 00:30:13;;;;;;;3.47;2.37;;;26.20;68.10;;;;;;4996152;28;20222;-94
2022/10/17 00:32:46;;;;;;;4.13;3.00;;;26.10;69.40;;;;;;4998906;28;20667;-95
2022/10/17 00:35:17;;;;;;;4.07;2.70;;;25.90;69.10;;;;;;5000465;28;20217;-96
2022/10/17 00:37:49;;;;;;;4.13;3.17;;;25.80;69.80;;;;;;5010057;28;20254;-93
2022/10/17 00:40:23;;;;;;;5.40;2.73;;;25.70;69.80;;;;;;5010667;28;20270;-96
2022/10/17 00:42:55;;;;;;;3.63;2.80;;;25.50;69.40;;;;;;4981278;28;20202;-96
2022/10/17 00:45:28;;;;;;;5.90;2.97;;;25.50;69.70;;;;;;4981818;28;20203;-96
2022/10/17 00:48:02;;;;;;;14.00;4.10;;;25.40;71.00;;;;;;4979565;28;20235;-96
2022/10/17 00:50:35;;;;;;;6.77;3.40;;;25.20;72.00;;;;;;4979232;28;20210;-95
2022/10/17 00:53:08;;;;;;;6.00;2.87;;;25.00;73.50;;;;;;4980887;28;20687;-96
2022/10/17 00:55:47;;;;;;;3.73;2.97;;;24.90;73.70;;;;;;4998512;28;20218;-95
2022/10/17 00:58:20;;;;;;;3.83;2.53;;;24.70;74.10;;;;;;4981942;28;20216;-95
2022/10/17 01:00:54;;;;;;;7.77;3.00;;;24.50;74.50;;;;;;4998800;28;20578;-96
2022/10/17 01:03:25;;;;;;;3.93;3.30;;;24.40;75.70;;;;;;4997016;28;20562;-94
2022/10/17 01:06:00;;;;;;;3.80;3.27;;;24.20;74.60;;;;;;4998832;28;20222;-95
2022/10/17 01:08:32;;;;;;;9.87;3.37;;;24.10;74.50;;;;;;4998262;28;21736;-96
2022/10/17 01:11:11;;;;;;;6.23;4.53;;;23.90;75.90;;;;;;4998206;28;20682;-96
2022/10/17 01:13:47;;;;;;;8.13;5.93;;;23.70;76.40;;;;;;4999802;28;20659;-95
2022/10/17 01:16:23;;;;;;;6.83;4.80;;;23.60;77.70;;;;;;5000238;28;20207;-96
2022/10/17 01:19:04;;;;;;;6.97;4.77;;;23.40;77.80;;;;;;4998670;28;20217;-95
2022/10/17 01:21:53;;;;;;;22.90;13.60;;;23.20;78.00;;;;;;5000713;28;20205;-95
2022/10/17 01:24:43;;;;;;;53.83;34.00;;;23.00;79.10;;;;;;4999115;28;20206;-96
2022/10/17 01:27:56;;;;;;;13.67;9.50;;;22.90;79.10;;;;;;5011748;28;20194;-95
2022/10/17 01:30:52;;;;;;;6.57;4.43;;;22.70;79.60;;;;;;4997810;28;20202;-96
2022/10/17 01:33:38;;;;;;;9.43;4.10;;;22.50;79.80;;;;;;5000017;28;20210;-96
2022/10/17 01:36:14;;;;;;;8.17;3.40;;;22.40;79.50;;;;;;5001278;28;20705;-96
2022/10/17 01:38:50;;;;;;;5.53;2.87;;;22.20;80.00;;;;;;5000157;28;20213;-95
2022/10/17 01:41:35;;;;;;;6.77;2.87;;;22.10;78.70;;;;;;4999571;28;20682;-95
2022/10/17 01:44:12;;;;;;;8.60;3.10;;;22.00;78.20;;;;;;4998067;28;20514;-96
2022/10/17 01:46:47;;;;;;;3.13;2.83;;;22.00;76.50;;;;;;4998563;28;20537;-95
2022/10/17 01:49:25;;;;;;;9.30;5.60;;;22.00;77.70;;;;;;4998612;28;20339;-95
2022/10/17 01:52:02;;;;;;;11.83;7.93;;;22.00;77.80;;;;;;4998850;28;20217;-95
2022/10/17 01:54:38;;;;;;;11.23;8.27;;;22.20;79.20;;;;;;4999368;28;20202;-93
2022/10/17 01:57:15;;;;;;;14.27;11.00;;;22.20;81.10;;;;;;4998559;28;20214;-94
2022/10/17 01:59:50;;;;;;;13.13;10.73;;;22.10;83.00;;;;;;4998075;28;20225;-94
2022/10/17 02:02:22;;;;;;;14.17;11.67;;;22.10;83.40;;;;;;4997147;28;20202;-95
2022/10/17 02:04:58;;;;;;;23.47;20.00;;;21.90;83.20;;;;;;4998378;28;20218;-96
2022/10/17 02:07:29;;;;;;;32.53;25.30;;;22.10;84.00;;;;;;4988227;28;20245;-95
2022/10/17 02:10:00;;;;;;;31.17;25.20;;;22.00;86.70;;;;;;4997911;28;20249;-95
2022/10/17 02:12:50;;;;;;;31.60;25.63;;;21.90;87.60;;;;;;4997250;28;20206;-96
2022/10/17 02:15:53;;;;;;;31.67;26.10;;;21.70;88.10;;;;;;4998310;28;20218;-95
2022/10/17 02:18:39;;;;;;;33.37;26.30;;;21.50;88.60;;;;;;4998040;28;20244;-95
2022/10/17 02:21:19;;;;;;;30.60;23.70;;;21.30;90.00;;;;;;4998217;28;20214;-95
2022/10/17 02:23:56;;;;;;;33.50;27.53;;;21.20;90.60;;;;;;5000470;28;20205;-95
2022/10/17 02:26:33;;;;;;;33.90;27.60;;;21.20;90.40;;;;;;5007973;28;20258;-94
2022/10/17 02:29:09;;;;;;;31.90;27.63;;;21.00;90.70;;;;;;4986180;28;20329;-95
2022/10/17 02:31:46;;;;;;;34.47;28.20;;;20.80;91.20;;;;;;4979140;28;20294;-95
2022/10/17 02:34:22;;;;;;;33.70;27.50;;;20.60;91.90;;;;;;4981811;28;20245;-96
2022/10/17 02:37:01;;;;;;;35.60;29.30;;;20.50;92.50;;;;;;5000552;28;20208;-96
2022/10/17 02:39:36;;;;;;;37.17;30.80;;;20.30;92.70;;;;;;4991143;28;20214;-95
2022/10/17 02:42:12;;;;;;;45.03;32.43;;;20.10;92.80;;;;;;4978051;28;20210;-95
2022/10/17 02:44:45;;;;;;;42.20;34.87;;;19.90;92.80;;;;;;4982121;28;20298;-95
2022/10/17 02:47:23;;;;;;;39.43;34.60;;;19.80;92.80;;;;;;4980728;28;20680;-95
2022/10/17 02:49:59;;;;;;;47.63;35.37;;;19.60;92.80;;;;;;5109919;22;20400;-96
2022/10/17 02:52:39;;;;;;;42.33;35.10;;;19.50;92.70;;;;;;5031776;28;20240;-96
2022/10/17 03:32:28;;;;;;;21.97;14.27;;;18.30;99.90;;;;;;5280082;23;20280;-96
2022/10/17 03:35:02;;;;;;;13.67;10.93;;;18.30;99.90;;;;;;5059396;23;20233;-96
2022/10/17 03:37:39;;;;;;;12.87;10.20;;;18.20;99.90;;;;;;5036602;28;20212;-96
2022/10/17 03:51:02;;;;;;;13.13;9.10;;;17.60;99.90;;;;;;5705265;23;20281;-96
2022/10/17 04:17:51;;;;;;;21.17;10.43;;;16.40;99.90;;;;;;6032936;23;20514;-96
2022/10/17 04:31:16;;;;;;;18.00;12.03;;;16.00;99.90;;;;;;5921355;23;20289;-95
2022/10/17 04:39:08;;;;;;;19.30;12.30;;;15.70;99.90;;;;;;5035846;23;20242;-95
2022/10/17 05:22:01;;;;;;;20.23;12.67;;;15.00;99.90;;;;;;5920967;23;20460;-96
2022/10/17 05:24:35;;;;;;;24.87;13.50;;;15.00;99.90;;;;;;4994709;28;20314;-96
2022/10/17 05:27:07;;;;;;;23.43;13.33;;;15.00;99.90;;;;;;4979297;28;20274;-96
2022/10/17 05:29:39;;;;;;;22.10;13.60;;;14.90;99.90;;;;;;4989384;28;20254;-96
2022/10/17 05:32:18;;;;;;;20.37;12.63;;;14.90;99.90;;;;;;4982258;28;20674;-96
2022/10/17 05:34:50;;;;;;;19.43;12.60;;;14.90;99.90;;;;;;4978512;28;20227;-96
2022/10/17 05:37:28;;;;;;;18.67;12.17;;;14.80;99.90;;;;;;4988224;28;20242;-96
2022/10/17 05:40:02;;;;;;;21.63;13.73;;;14.80;99.90;;;;;;4995465;28;20279;-96
2022/10/17 05:42:43;;;;;;;22.57;12.33;;;14.80;99.90;;;;;;4998636;28;20291;-96
2022/10/17 05:45:17;;;;;;;21.27;12.63;;;14.80;99.90;;;;;;4996361;28;20203;-96
2022/10/17 05:47:50;;;;;;;20.73;12.47;;;14.80;99.90;;;;;;4995339;28;20198;-96
2022/10/17 05:50:24;;;;;;;21.23;13.00;;;14.70;99.90;;;;;;4999925;28;20226;-95
2022/10/17 06:28:09;;;;;;;20.03;13.00;;;14.50;99.90;;;;;;5567740;23;20316;-96
2022/10/17 06:30:42;;;;;;;25.73;12.73;;;14.50;99.90;;;;;;5031368;28;20304;-96
2022/10/17 06:33:16;;;;;;;21.37;13.13;;;14.50;99.90;;;;;;5027858;28;20202;-96
2022/10/17 06:35:57;;;;;;;18.87;12.20;;;14.50;99.90;;;;;;5030914;28;20273;-96
2022/10/17 06:38:29;;;;;;;20.17;12.43;;;14.50;99.90;;;;;;5032518;28;20201;-96
2022/10/17 06:41:07;;;;;;;20.57;12.30;;;14.50;99.90;;;;;;5099614;23;20237;-96
2022/10/17 06:43:46;;;;;;;21.80;12.37;;;14.50;99.90;;;;;;4996010;28;20203;-96
2022/10/17 06:46:20;;;;;;;20.87;12.43;;;14.40;99.90;;;;;;4998632;28;20210;-96
2022/10/17 06:48:54;;;;;;;19.47;12.10;;;14.40;99.90;;;;;;4993633;28;20292;-96
2022/10/17 06:51:31;;;;;;;21.67;12.00;;;14.40;99.90;;;;;;4970993;28;20231;-96
2022/10/17 06:54:04;;;;;;;24.60;12.67;;;14.40;99.90;;;;;;4993807;28;20187;-96
2022/10/17 06:56:41;;;;;;;20.33;12.47;;;14.30;99.90;;;;;;4994722;28;20201;-96
2022/10/17 07:05:20;;;;;;;18.03;11.60;;;14.40;99.90;;;;;;5800790;23;20225;-96
2022/10/17 07:07:57;;;;;;;21.47;11.60;;;14.40;99.90;;;;;;4978489;28;20239;-96
2022/10/17 07:10:29;;;;;;;17.97;11.60;;;14.40;99.90;;;;;;5290178;23;20297;-96
2022/10/17 07:13:04;;;;;;;20.20;11.67;;;14.40;99.90;;;;;;5034721;28;20260;-96
2022/10/17 07:15:42;;;;;;;22.97;12.13;;;14.40;99.90;;;;;;5016522;28;20269;-96
2022/10/17 07:34:26;;;;;;;17.93;9.97;;;14.20;99.90;;;;;;5133124;23;20252;-96
2022/10/17 07:37:00;;;;;;;18.53;11.57;;;14.30;99.90;;;;;;4998668;28;20230;-96
2022/10/17 07:39:37;;;;;;;20.17;11.20;;;14.30;99.90;;;;;;5008877;28;20274;-96
2022/10/17 07:42:10;;;;;;;23.40;11.07;;;14.30;99.90;;;;;;5015698;28;20211;-96
2022/10/17 07:44:46;;;;;;;18.83;10.77;;;14.30;99.90;;;;;;5009404;28;20221;-96
2022/10/17 07:47:22;;;;;;;19.97;10.30;;;14.30;99.90;;;;;;5012512;28;20241;-96
2022/10/17 07:50:05;;;;;;;18.63;10.87;;;14.20;99.90;;;;;;5013828;28;20202;-96
2022/10/17 07:52:42;;;;;;;19.57;10.83;;;14.20;99.90;;;;;;5002500;28;20215;-96
2022/10/17 07:55:14;;;;;;;18.10;10.30;;;14.20;99.90;;;;;;4995278;28;20217;-96
2022/10/17 07:57:46;;;;;;;18.47;10.90;;;14.20;99.90;;;;;;5007869;28;20230;-96
2022/10/17 08:00:19;;;;;;;20.17;10.73;;;14.20;99.90;;;;;;4994927;28;20214;-96
2022/10/17 08:02:52;;;;;;;20.63;10.33;;;14.20;99.90;;;;;;4993107;28;20207;-96
2022/10/17 08:38:06;;;;;;;18.97;10.30;;;14.20;99.90;;;;;;5772963;23;20245;-96
2022/10/17 08:40:51;;;;;;;14.80;9.20;;;14.30;99.90;;;;;;4976733;28;20222;-96
2022/10/17 08:43:37;;;;;;;17.83;9.50;;;14.20;99.90;;;;;;4972294;28;20283;-96
2022/10/17 08:46:11;;;;;;;16.83;9.53;;;14.20;99.90;;;;;;4980186;28;20207;-96
2022/10/17 08:51:33;;;;;;;14.70;9.43;;;14.20;99.90;;;;;;5368253;23;20272;-96
2022/10/17 08:54:19;;;;;;;16.77;9.20;;;14.30;99.90;;;;;;5034999;28;20201;-96
2022/10/17 08:56:52;;;;;;;20.50;10.43;;;14.30;99.90;;;;;;5033614;28;20215;-96
2022/10/17 08:59:29;;;;;;;17.20;9.70;;;14.30;99.90;;;;;;5037770;28;20224;-96
2022/10/17 09:02:16;;;;;;;16.07;9.63;;;14.30;99.90;;;;;;5022024;28;20201;-96
2022/10/17 09:05:06;;;;;;;18.50;10.03;;;14.30;99.90;;;;;;5035664;28;20212;-96
2022/10/17 09:58:59;;;;;;;16.47;10.90;;;14.20;99.90;;;;;;4990492;28;20240;-96
2022/10/17 10:01:33;;;;;;;21.07;11.50;;;14.20;99.90;;;;;;4991511;28;20203;-96
2022/10/17 10:04:15;;;;;;;17.73;11.87;;;14.20;99.90;;;;;;4987699;28;20215;-96
2022/10/17 10:07:07;;;;;;;17.50;11.43;;;14.20;99.90;;;;;;4991243;28;20214;-96
2022/10/17 10:09:41;;;;;;;20.63;10.97;;;14.20;99.90;;;;;;4986865;28;20211;-95
2022/10/17 10:12:21;;;;;;;18.50;11.17;;;14.20;99.90;;;;;;4994470;28;20237;-96
2022/10/17 10:14:59;;;;;;;17.43;11.80;;;14.20;99.90;;;;;;4996494;28;20225;-96
2022/10/17 10:17:40;;;;;;;17.37;10.27;;;14.20;99.90;;;;;;4999819;28;20220;-96
2022/10/17 10:20:32;;;;;;;17.67;11.33;;;14.10;99.90;;;;;;4999806;28;20217;-96
2022/10/17 10:23:09;;;;;;;21.13;11.23;;;14.10;99.90;;;;;;4998889;28;20282;-96
2022/10/17 10:25:59;;;;;;;17.87;11.27;;;14.00;99.90;;;;;;5008575;28;20249;-96
2022/10/17 10:28:35;;;;;;;19.10;11.40;;;14.00;99.90;;;;;;5009704;28;20245;-96
2022/10/17 10:31:29;;;;;;;19.40;11.13;;;14.00;99.90;;;;;;4993012;28;20270;-96
2022/10/17 10:34:12;;;;;;;17.77;10.90;;;13.90;99.90;;;;;;4991412;28;20214;-96
2022/10/17 10:36:53;;;;;;;20.07;11.17;;;13.90;99.90;;;;;;4997831;28;20224;-96
2022/10/17 10:39:46;;;;;;;19.80;11.13;;;13.90;99.90;;;;;;4997123;28;20207;-96
2022/10/17 10:42:33;;;;;;;15.93;10.73;;;13.90;99.90;;;;;;4988732;28;20219;-96
2022/10/17 10:45:16;;;;;;;13.80;10.27;;;13.90;99.90;;;;;;4975583;28;20243;-96
2022/10/17 10:48:22;;;;;;;16.33;11.07;;;13.90;99.90;;;;;;4982636;28;20213;-96
2022/10/17 10:50:57;;;;;;;17.63;10.17;;;13.90;99.90;;;;;;4964734;28;20215;-95
2022/10/17 10:53:38;;;;;;;16.83;10.70;;;13.90;99.90;;;;;;4987204;28;20195;-96
2022/10/17 10:56:15;;;;;;;18.93;10.50;;;13.80;99.90;;;;;;4984656;28;20674;-96
2022/10/17 10:58:56;;;;;;;20.67;11.13;;;13.80;99.90;;;;;;4980847;28;20214;-96
2022/10/17 11:01:35;;;;;;;21.30;10.23;;;13.80;99.90;;;;;;4962094;28;20212;-96
2022/10/17 11:07:06;;;;;;;19.37;10.33;;;13.80;99.90;;;;;;5061025;27;2036084;-96
2022/10/17 11:09:49;;;;;;;18.57;10.67;;;13.70;99.90;;;;;;5127832;28;20196;-96
2022/10/17 11:12:24;;;;;;;21.53;9.97;;;13.70;99.90;;;;;;5114343;28;20199;-96
2022/10/17 11:15:09;;;;;;;15.73;10.40;;;13.60;99.90;;;;;;5128295;28;20570;-96
2022/10/17 11:17:57;;;;;;;16.67;10.50;;;13.60;99.90;;;;;;5141069;28;20272;-95
2022/10/17 11:20:39;;;;;;;18.97;10.07;;;13.50;99.90;;;;;;5133337;28;20232;-96
2022/10/17 11:23:25;;;;;;;20.33;10.67;;;13.50;99.90;;;;;;5125552;28;20200;-96
2022/10/17 11:26:01;;;;;;;15.13;9.57;;;13.40;99.90;;;;;;5145428;28;20249;-96
2022/10/17 11:28:36;;;;;;;17.27;10.03;;;13.40;99.90;;;;;;5130649;27;20234;-96
2022/10/17 11:33:48;;;;;;;16.13;10.10;;;13.30;99.90;;;;;;5064526;28;20607;-96
2022/10/17 11:36:28;;;;;;;19.63;10.73;;;13.10;99.90;;;;;;5049159;28;20298;-96
2022/10/17 11:39:11;;;;;;;17.97;10.73;;;13.20;99.90;;;;;;5053719;28;20197;-96
2022/10/17 11:41:50;;;;;;;16.33;10.33;;;13.10;99.90;;;;;;5031067;28;20209;-96
2022/10/17 11:44:43;;;;;;;17.47;10.23;;;13.00;99.90;;;;;;5027778;28;20246;-96
2022/10/17 11:47:31;;;;;;;18.07;10.53;;;12.90;99.90;;;;;;5048270;28;20205;-96
2022/10/17 11:52:50;;;;;;;18.23;10.87;;;12.80;99.90;;;;;;5648991;22;20587;-96
2022/10/17 11:55:33;;;;;;;16.10;10.50;;;12.70;99.90;;;;;;5041056;28;20620;-96
2022/10/17 11:58:31;;;;;;;18.97;10.53;;;12.70;99.90;;;;;;5037882;28;20635;-96
2022/10/17 12:01:22;;;;;;;20.07;11.90;;;12.60;99.90;;;;;;5037713;28;20215;-96
2022/10/17 12:04:09;;;;;;;17.87;10.90;;;12.50;99.90;;;;;;5042455;28;20236;-96
2022/10/17 12:06:57;;;;;;;23.77;11.47;;;12.50;99.90;;;;;;5049247;28;20233;-96
2022/10/17 12:09:42;;;;;;;18.57;11.10;;;12.40;99.90;;;;;;5030399;28;20215;-96
2022/10/17 12:12:30;;;;;;;15.53;10.83;;;12.40;99.90;;;;;;5043567;28;20215;-96
2022/10/17 12:15:33;;;;;;;17.60;10.80;;;12.40;99.90;;;;;;5047898;28;20197;-96
2022/10/17 12:18:08;;;;;;;24.10;11.20;;;12.30;99.90;;;;;;5035410;28;20567;-96
2022/10/17 12:20:43;;;;;;;17.50;11.43;;;12.30;99.90;;;;;;5043605;28;20232;-96
2022/10/17 12:23:28;;;;;;;16.20;10.70;;;12.20;99.90;;;;;;5058538;28;20276;-96
2022/10/17 12:26:03;;;;;;;18.57;11.50;;;12.20;99.90;;;;;;5059059;28;20238;-96
2022/10/17 12:28:45;;;;;;;18.30;11.90;;;12.20;99.90;;;;;;5035644;28;20240;-96
2022/10/17 12:31:34;;;;;;;18.83;11.10;;;12.20;99.90;;;;;;5020603;28;20213;-96
2022/10/17 12:34:17;;;;;;;17.77;11.03;;;12.10;99.90;;;;;;5038099;28;20202;-96
2022/10/17 12:36:49;;;;;;;15.67;11.03;;;12.20;99.90;;;;;;5039188;28;20295;-96
2022/10/17 12:51:20;;;;;;;15.57;11.30;;;12.00;99.90;;;;;;5017798;28;20242;-96
2022/10/17 12:59:30;;;;;;;18.93;11.97;;;11.80;99.90;;;;;;5102479;23;20565;-95
2022/10/17 13:02:06;;;;;;;20.83;12.30;;;11.70;99.90;;;;;;5011295;28;20244;-96
2022/10/17 13:04:39;;;;;;;19.47;11.80;;;11.70;99.90;;;;;;5010679;28;20258;-96
2022/10/17 13:07:20;;;;;;;16.30;12.33;;;11.70;99.90;;;;;;4995279;28;20337;-96
2022/10/17 13:10:03;;;;;;;19.37;12.70;;;11.70;99.90;;;;;;4991345;28;20198;-96
2022/10/17 13:12:44;;;;;;;20.27;11.93;;;11.60;99.90;;;;;;4998823;28;20202;-96
2022/10/17 13:15:30;;;;;;;17.90;12.70;;;11.60;99.90;;;;;;5011270;28;20206;-96
2022/10/17 13:18:03;;;;;;;18.43;13.53;;;11.60;99.90;;;;;;5013095;28;20217;-96
2022/10/17 13:20:40;;;;;;;22.07;12.93;;;11.50;99.90;;;;;;5013562;28;20198;-96
2022/10/17 13:23:24;;;;;;;19.03;11.80;;;11.50;99.90;;;;;;5009228;28;20220;-96
2022/10/17 13:26:18;;;;;;;21.13;13.10;;;11.50;99.90;;;;;;4993117;28;20233;-96
2022/10/17 13:29:05;;;;;;;19.50;12.60;;;11.50;99.90;;;;;;5016569;28;20213;-96
2022/10/17 13:34:34;;;;;;;16.47;11.87;;;11.40;99.90;;;;;;5147216;23;20319;-96
2022/10/17 13:39:45;;;;;;;19.17;12.57;;;11.40;99.90;;;;;;5476956;23;20239;-96
2022/10/17 13:42:31;;;;;;;16.83;12.70;;;11.30;99.90;;;;;;5069584;28;20479;-96
2022/10/17 13:45:17;;;;;;;19.70;12.80;;;11.40;99.90;;;;;;5060350;28;20184;-96
2022/10/17 13:47:57;;;;;;;19.03;12.87;;;11.30;99.90;;;;;;5073622;28;20270;-96
2022/10/17 13:59:00;;;;;;;17.63;12.17;;;11.30;99.90;;;;;;5035438;28;20217;-96
2022/10/17 14:04:13;;;;;;;18.47;12.30;;;11.20;99.90;;;;;;5946150;22;20239;-96
2022/10/17 14:06:53;;;;;;;18.47;12.77;;;11.20;99.90;;;;;;5012900;28;20233;-96
2022/10/17 14:09:33;;;;;;;23.47;13.50;;;11.10;99.90;;;;;;5023469;28;20660;-96
2022/10/17 14:12:15;;;;;;;20.73;12.87;;;11.10;99.90;;;;;;5005934;28;20201;-96
2022/10/17 14:14:52;;;;;;;23.13;12.87;;;11.10;99.90;;;;;;5008222;28;20209;-96
2022/10/17 14:17:43;;;;;;;22.20;13.13;;;11.10;99.90;;;;;;5031398;28;20205;-96
2022/10/17 14:23:37;;;;;;;21.47;13.17;;;11.10;99.90;;;;;;5027266;28;20206;-96
2022/10/17 14:26:18;;;;;;;21.20;13.00;;;11.10;99.90;;;;;;5030525;28;20214;-96
2022/10/17 14:28:56;;;;;;;17.77;12.83;;;11.20;99.90;;;;;;5025010;28;20251;-96
2022/10/17 14:31:38;;;;;;;17.73;13.17;;;11.10;99.90;;;;;;5026530;28;20223;-96
2022/10/17 14:34:26;;;;;;;20.53;12.27;;;11.20;99.90;;;;;;5031320;28;20210;-96
2022/10/17 15:09:27;;;;;;;19.97;13.47;;;11.20;99.90;;;;;;5073404;28;20207;-96
2022/10/17 15:17:29;;;;;;;24.73;14.60;;;11.20;99.90;;;;;;5835614;22;20208;-96
2022/10/17 15:20:08;;;;;;;23.30;13.57;;;11.30;99.90;;;;;;5071110;28;20196;-96
2022/10/17 15:22:43;;;;;;;23.70;13.23;;;11.30;99.90;;;;;;5070500;28;20302;-96
2022/10/17 15:25:23;;;;;;;23.80;13.27;;;11.30;99.90;;;;;;5070575;28;20218;-96
2022/10/17 15:27:57;;;;;;;21.10;12.50;;;11.30;99.90;;;;;;5063653;28;20236;-96
2022/10/17 15:30:32;;;;;;;18.73;13.30;;;11.40;99.90;;;;;;5061157;28;20295;-96
2022/10/17 15:33:10;;;;;;;19.87;13.17;;;11.40;99.90;;;;;;5068268;28;20242;-96
2022/10/17 15:35:43;;;;;;;28.30;13.20;;;11.40;99.90;;;;;;5069475;28;20228;-96
2022/10/17 15:54:43;;;;;;;21.53;14.63;;;11.70;99.90;;;;;;5832662;22;20241;-96
2022/10/17 15:57:22;;;;;;;21.03;13.53;;;11.80;99.90;;;;;;4997273;28;20210;-96
2022/10/17 15:59:57;;;;;;;24.30;13.43;;;11.90;99.90;;;;;;4981862;28;20270;-96
2022/10/17 16:02:32;;;;;;;21.77;12.93;;;12.10;99.90;;;;;;4998873;28;20190;-96
2022/10/17 16:05:24;;;;;;;21.27;12.60;;;12.10;99.90;;;;;;5433266;22;20241;-96
2022/10/17 16:13:33;;;;;;;20.57;13.07;;;12.30;99.90;;;;;;6030231;22;21608;-96
2022/10/17 16:16:11;;;;;;;22.37;13.43;;;12.40;99.90;;;;;;5069257;28;20258;-96
2022/10/17 16:18:49;;;;;;;22.63;15.07;;;12.50;99.90;;;;;;5068936;28;20212;-96
2022/10/17 16:21:25;;;;;;;22.83;13.87;;;12.60;99.90;;;;;;5067652;28;20219;-96
2022/10/17 16:23:59;;;;;;;20.27;13.70;;;12.60;99.90;;;;;;5064589;28;20661;-96
2022/10/17 16:26:34;;;;;;;22.13;14.70;;;12.70;99.90;;;;;;5072274;28;20227;-96
2022/10/17 16:29:17;;;;;;;19.17;12.70;;;12.70;99.90;;;;;;5069424;28;20215;-96
2022/10/17 16:31:49;;;;;;;19.63;13.13;;;12.90;99.90;;;;;;5057214;28;20213;-96
2022/10/17 16:34:22;;;;;;;21.47;13.77;;;13.00;99.90;;;;;;5047189;28;20208;-96
2022/10/17 16:36:58;;;;;;;21.50;13.57;;;13.00;99.90;;;;;;5048371;28;20216;-96
2022/10/17 16:39:29;;;;;;;21.80;14.33;;;13.20;99.90;;;;;;5041543;28;20213;-96
2022/10/17 16:45:00;;;;;;;20.20;14.10;;;13.40;99.90;;;;;;5053677;28;20217;-96
2022/10/17 16:47:37;;;;;;;19.30;13.20;;;13.50;99.90;;;;;;5075922;28;20287;-96
2022/10/17 16:50:19;;;;;;;18.70;13.23;;;13.50;99.90;;;;;;5076604;28;20599;-96
2022/10/17 16:53:00;;;;;;;17.97;12.93;;;13.60;99.90;;;;;;5050077;28;20210;-96
2022/10/17 16:58:20;;;;;;;22.63;12.60;;;13.90;99.90;;;;;;5336320;23;20243;-96
2022/10/17 17:11:48;;;;;;;19.37;12.10;;;14.30;99.90;;;;;;5464837;22;20298;-96
2022/10/17 17:14:24;;;;;;;23.00;12.20;;;14.40;99.90;;;;;;5025719;28;20253;-96
2022/10/17 17:17:08;;;;;;;20.13;12.20;;;14.50;99.90;;;;;;5056696;28;20223;-96
2022/10/17 17:20:01;;;;;;;22.87;12.60;;;14.60;99.90;;;;;;5025277;28;20256;-96
2022/10/17 17:22:36;;;;;;;24.23;12.60;;;14.80;99.90;;;;;;5055041;28;20196;-96
2022/10/17 17:25:13;;;;;;;18.53;12.73;;;14.90;99.90;;;;;;5038530;28;20411;-96
2022/10/17 22:43:04;;;;;;;17.17;11.23;;;20.00;99.90;;;;;;4993823;28;20309;-95
2022/10/17 22:45:36;;;;;;;15.03;10.97;;;20.20;99.90;;;;;;4993816;28;20270;-96
2022/10/17 22:48:11;;;;;;;15.77;11.10;;;20.40;99.90;;;;;;4995700;28;20226;-96
2022/10/17 22:50:45;;;;;;;20.70;11.83;;;20.30;99.90;;;;;;4994135;28;20277;-96
2022/10/17 22:53:22;;;;;;;20.20;12.70;;;20.30;99.90;;;;;;5166481;22;20250;-93
2022/10/17 22:55:54;;;;;;;17.53;12.43;;;20.10;99.90;;;;;;5018194;28;20223;-88
2022/10/17 22:58:28;;;;;;;19.17;12.73;;;20.10;99.90;;;;;;5032519;28;20649;-89
2022/10/17 23:00:58;;;;;;;20.50;14.40;;;20.10;99.90;;;;;;5037348;28;20219;-89
2022/10/17 23:03:31;;;;;;;14.50;11.80;;;19.70;99.90;;;;;;5036472;28;20207;-90
2022/10/17 23:06:02;;;;;;;18.37;12.47;;;19.60;99.90;;;;;;5033796;28;20227;-89
2022/10/17 23:08:32;;;;;;;19.43;12.73;;;19.50;99.90;;;;;;5033638;28;20232;-89
2022/10/17 23:11:04;;;;;;;22.40;13.10;;;19.30;99.90;;;;;;5032575;28;20220;-89
2022/10/17 23:13:38;;;;;;;17.63;12.30;;;19.40;99.90;;;;;;5032212;28;20202;-89
2022/10/17 23:16:09;;;;;;;19.87;13.00;;;19.30;99.90;;;;;;5033071;28;20204;-90
2022/10/17 23:18:41;;;;;;;18.33;12.80;;;19.20;99.90;;;;;;5033671;28;20219;-90
2022/10/17 23:21:11;;;;;;;19.80;13.93;;;19.30;99.90;;;;;;5033466;28;20221;-89
2022/10/17 23:23:42;;;;;;;21.27;13.80;;;19.20;99.90;;;;;;5032291;28;20197;-89
2022/10/17 23:26:15;;;;;;;18.67;13.07;;;19.20;99.90;;;;;;5015265;28;20219;-89
2022/10/17 23:28:49;;;;;;;21.40;14.60;;;19.10;99.90;;;;;;5033572;28;20233;-89
2022/10/17 23:31:22;;;;;;;20.83;14.30;;;19.00;99.90;;;;;;5020391;28;20223;-89
2022/10/17 23:33:53;;;;;;;22.37;14.13;;;18.90;99.90;;;;;;5032341;28;20200;-89
2022/10/17 23:36:24;;;;;;;22.03;16.07;;;18.90;99.90;;;;;;5017837;28;20208;-88
2022/10/17 23:38:55;;;;;;;23.57;15.60;;;18.90;99.90;;;;;;5016942;28;20288;-87
2022/10/17 23:41:27;;;;;;;23.13;14.87;;;18.80;99.90;;;;;;5035152;28;20212;-88
2022/10/17 23:44:01;;;;;;;17.90;14.70;;;18.80;99.90;;;;;;5015384;28;20208;-89
2022/10/17 23:46:34;;;;;;;20.37;14.87;;;18.80;99.90;;;;;;5033459;28;20261;-89
2022/10/17 23:49:05;;;;;;;21.63;16.77;;;18.80;99.90;;;;;;5033190;28;20589;-89
2022/10/17 23:51:36;;;;;;;28.93;18.00;;;18.70;99.90;;;;;;5033217;28;20692;-89
2022/10/17 23:54:07;;;;;;;26.90;20.07;;;18.70;99.90;;;;;;5032454;28;20224;-88
2022/10/17 23:56:38;;;;;;;22.53;18.23;;;18.70;99.90;;;;;;5032948;28;20201;-88
2022/10/17 23:59:12;;;;;;;23.37;18.93;;;18.60;99.90;;;;;;5032703;28;20215;-89
